YBCB weather

Bencubbin Airport
Western Australia, Australia

Public forecast

Using degrees Celsius for public forecast. Weather courtesy of forecast.io.

METAR (pilot weather report)

Closest report is RAAF Base Pearce, 107.5 nm (199.0 km) WSW. Retrieved 2019/04/21 17:30 UTC (13 minutes ago):

YPEA 211730Z AUTO 00000KT 9999 // NCD 08/05 Q1023

TAF (pilot weather forecast)

Closest forecast is RAAF Base Pearce, 107.5 nm (199.0 km) WSW. Retrieved 2019/04/21 12:00 UTC (6 hours ago):

TAF YPEA 211036Z 2112/2206 06006KT CAVOK FM220400 35007KT CAVOK